Tropical Cyclones
[Index]
Main Index Home Page Stock Weather Photos Extreme Storms Discussion Storm News and Storm Chasing Reports Tropical Cyclones / Hurricanes / Typhoons Weather Data and Links Wild Fires / Bushfires Weather Observation Techniques Weather Picture Catalogue Tornado Pictures and Reports Stock Video Footage and DVDs for sale
Season 2000-2001 Tropical Cyclone WYLVA Track Map
Season 2000-2001 Summaries: [BoM-AU] [JTWC-AU] [JTWC-SIO] [JTWC-SPAC] [JTWC-SH]
<<- Previous TC | BoM 2000-2001 Season | Next TC ->>

click for intensity scale information  Lat/long Grid: Show Hide

 Date Labels: Show Hide

Bureau of Meteorology Tropical Cyclone Data

Name: WYLVA
Number: 847 / 200001_05

14 Feb 2001 00:00 UTC to 22 Feb 2001 00:00 UTC

    date/time    lat    long    hPa   cat  kts
2001-02-14 00   13.5   141.5   1000         25          
2001-02-14 12   14.4   141.0   1000         25          
2001-02-15 00   14.7   140.6    998         25          
2001-02-15 06   14.6   140.1    996         30          
2001-02-15 12   15.1   139.4    996         30          
2001-02-15 18   15.3   138.7    994    1    40          
2001-02-16 00   15.5   138.4    990    1    40          
2001-02-16 06   16.0   138.0    990    1    40          
2001-02-16 11   16.4   137.0    995    1    35          
2001-02-16 12   16.5   136.9    995    1    35          
2001-02-16 18   17.2   136.2    995    1    30          
2001-02-17 00   18.0   136.0    995    1    30          
2001-02-17 06   18.6   135.6    994    1    25          
2001-02-17 12   19.0   135.0    993    1    25          
2001-02-17 18   19.0   134.0    993    1    25          
2001-02-18 00   18.9   132.7    993    1    25          
2001-02-18 06   18.8   131.6    990    1    25          
2001-02-18 12   18.7   130.5    988    1    25          
2001-02-19 00   19.0   128.0    992    1    25          
2001-02-19 12   19.5   125.0    994    1    25          
2001-02-20 00   20.5   123.5    998         25          
2001-02-20 12   21.5   122.5    995    1    25          
2001-02-21 00   22.2   120.5    994    1    25          
2001-02-21 12   23.0   118.0    993    1    25          
2001-02-22 00   23.5   116.0    998         25          
Winds are 10-min average.

Tropical cyclone tracks developed by Michael Bath using data from the Bureau of Meteorology and Google Maps.


[Australian Severe Weather index] [Copyright Notice] [Email Contacts] [Search This Site] [Privacy Policy]
Document: tropical_cyclone_wylva.htm Updated: 29 June 2017